Pagrindinis puslapis
METAR-TAF:

METAR-TAF

Oro uostai :

Veliko Tirnovas, Bulgarija

platuma: 43-09N, ilguma: 025-36E, Aukštis: 87 m

Dabartinis oras

Ataskaita buvo paskelbta 12 minutes, ne 11:30 UTC
Vėjas 2 kt nuo kintamojo kryptimis
Temperatūra 12°C
Drėgmė 82%
Slėgis 1022 hPa
Matomumas 10 km arba daugiau

METAR: LBGO 171130Z AUTO VRB02KT 9999 OVC023/// 12/09 Q1022 NOSIG

Laikas: 14:42 (11:42 UTC)

Prognozė

Ataskaita buvo paskelbta 6 valandos ir 42 minutes, ne 05:00 UTC
Prognozė galioja nuo 17 metu 06 UTC su 18 metu 06 UTC
Vėjas 4 kt nuo kintamojo kryptimis
Matomumas 10 km arba daugiau
Su prošvaistėmis ne aukštis 1000 ft
Apsiniaukę ne aukštis 1500 ft
Laikinai
nuo 17 metu 06 UTC su 17 metu 07 UTC
Matomumas: 3000 m
Apsiniaukę ne aukštis 500 ft
lietus, rūkana
Tapsmas
nuo 17 metu 08 UTC su 17 metu 10 UTC
Išsisklaidę debesys ne aukštis 2000 ft
Su prošvaistėmis ne aukštis 4000 ft

TAF: LBGO 170500Z 1706/1806 VRB04KT 9999 BKN010 OVC015 TEMPO 1706/1707 3000 RA BR OVC005 BECMG 1708/1710 SCT020 BKN040

Orai ataskaitas ir orų prognozės (METAR, TAF).

turimą stotys yra geltonos ir raudonos taškus žemėlapyje.

Perkelti pele per norėdami pamatyti stoties vardą.

Tada spustelėkite, norėdami matyti oro stebėjimo ir prognozės.

Norėdami pakeisti žemėlapį: spustelėkite ant žalios mygtukų su juodo kryžiaus žemyn,; žalią mygtuką su brūkšneliu, jei norite nutolinti; arba žalių rodyklių gretimoms žemėlapius.


METAR-TAF: